createdAt,value
2023-02-09T00:01:14.886Z,67.90
2023-02-09T00:03:43.479Z,72.57
2023-02-09T00:06:14.765Z,70.03
2023-02-09T00:08:42.979Z,68.90
2023-02-09T00:11:16.730Z,72.03
2023-02-09T00:13:44.199Z,73.93
2023-02-09T00:16:12.638Z,76.73
2023-02-09T00:18:41.035Z,76.80
2023-02-09T00:21:11.204Z,74.37
2023-02-09T00:23:41.116Z,74.97
2023-02-09T00:26:11.227Z,68.97
2023-02-09T00:28:41.433Z,71.97
2023-02-09T00:31:11.051Z,74.17
2023-02-09T00:33:41.414Z,73.47
2023-02-09T00:36:12.714Z,82.93
2023-02-09T00:38:41.212Z,74.57
2023-02-09T00:41:10.771Z,83.23
2023-02-09T00:43:39.439Z,77.63
2023-02-09T00:46:09.032Z,70.67
2023-02-09T00:48:37.996Z,61.00
2023-02-09T00:51:06.299Z,68.03
2023-02-09T00:53:36.395Z,69.63
2023-02-09T00:56:04.444Z,70.33
2023-02-09T00:58:33.083Z,65.30
2023-02-09T01:01:01.080Z,65.20
2023-02-09T01:03:30.465Z,68.03
2023-02-09T01:05:59.812Z,72.13
2023-02-09T01:08:29.095Z,72.20
2023-02-09T01:10:57.081Z,71.00
2023-02-09T01:13:25.342Z,71.17
2023-02-09T01:15:53.386Z,66.77
2023-02-09T01:18:21.294Z,71.63
2023-02-09T01:20:50.558Z,71.53
2023-02-09T01:23:18.478Z,74.40
2023-02-09T01:25:46.403Z,73.90
2023-02-09T01:28:14.388Z,72.90
2023-02-09T01:30:42.546Z,72.27
2023-02-09T01:33:10.567Z,79.20
2023-02-09T01:35:38.548Z,65.47
2023-02-09T01:38:07.832Z,60.10
2023-02-09T01:40:36.400Z,68.67
2023-02-09T01:43:04.395Z,71.67
2023-02-09T01:45:36.958Z,69.57
2023-02-09T01:48:05.178Z,70.10
2023-02-09T01:50:37.966Z,70.47
2023-02-09T01:53:08.065Z,70.27
2023-02-09T01:55:41.180Z,74.57
2023-02-09T01:58:13.074Z,69.57
2023-02-09T02:00:42.067Z,68.83
2023-02-09T02:03:15.292Z,69.93
2023-02-09T02:05:47.669Z,73.23
2023-02-09T02:08:23.951Z,70.07
2023-02-09T02:10:53.309Z,75.37
2023-02-09T02:13:21.733Z,71.47
2023-02-09T02:16:00.447Z,74.83
2023-02-09T02:18:46.585Z,69.27
2023-02-09T02:22:05.619Z,71.93
2023-02-09T02:25:01.876Z,66.70
2023-02-09T02:27:33.343Z,63.27
2023-02-09T02:30:29.080Z,69.17
2023-02-09T02:33:07.788Z,63.23
2023-02-09T02:35:38.311Z,65.47
2023-02-09T02:38:17.192Z,60.57
2023-02-09T02:40:56.029Z,60.23
2023-02-09T02:43:38.660Z,60.27
2023-02-09T02:46:11.127Z,65.43
2023-02-09T02:48:43.866Z,62.77
2023-02-09T02:51:18.006Z,67.03
2023-02-09T02:53:52.115Z,64.80
2023-02-09T02:56:23.778Z,60.00
2023-02-09T02:58:55.246Z,67.37
2023-02-09T03:01:25.887Z,62.80
2023-02-09T03:03:56.467Z,66.20
2023-02-09T03:06:24.362Z,62.73
2023-02-09T03:08:54.337Z,64.30
2023-02-09T03:11:25.470Z,59.73
2023-02-09T03:14:22.270Z,64.60
2023-02-09T03:17:00.912Z,55.33
2023-02-09T03:19:39.681Z,67.27
2023-02-09T03:22:13.314Z,63.50
2023-02-09T03:24:45.402Z,61.47
2023-02-09T03:27:18.812Z,62.47
2023-02-09T03:29:48.883Z,60.23
2023-02-09T03:32:18.396Z,65.10
2023-02-09T03:34:48.427Z,62.67
2023-02-09T03:37:16.609Z,61.77
2023-02-09T03:39:44.703Z,68.00
2023-02-09T03:42:12.707Z,63.47
2023-02-09T03:44:40.662Z,62.27
2023-02-09T03:47:10.510Z,60.90
2023-02-09T03:49:40.195Z,63.83
2023-02-09T03:52:11.865Z,55.57
2023-02-09T03:54:40.108Z,63.67
2023-02-09T03:57:08.500Z,63.57
2023-02-09T03:59:37.488Z,56.17
2023-02-09T04:02:07.469Z,62.90
2023-02-09T04:04:35.915Z,61.10
2023-02-09T04:07:04.120Z,63.50
2023-02-09T04:09:33.592Z,59.53
2023-02-09T04:12:01.561Z,63.50
2023-02-09T04:14:29.620Z,58.20
2023-02-09T04:16:57.587Z,58.77
2023-02-09T04:19:25.555Z,61.60
2023-02-09T04:21:53.522Z,58.43
2023-02-09T04:24:28.721Z,65.27
2023-02-09T04:26:58.018Z,70.53
2023-02-09T04:29:25.999Z,62.37
2023-02-09T04:31:53.991Z,69.73
2023-02-09T04:34:24.121Z,62.27
2023-02-09T04:36:52.359Z,65.80
2023-02-09T04:39:20.379Z,61.43
2023-02-09T04:41:48.337Z,55.87
2023-02-09T04:44:17.598Z,60.37
2023-02-09T04:46:45.852Z,60.57
2023-02-09T04:49:14.648Z,65.20
2023-02-09T04:51:42.563Z,62.67
2023-02-09T04:54:10.612Z,67.30
2023-02-09T04:56:38.936Z,62.43
2023-02-09T04:59:24.408Z,62.47
2023-02-09T05:01:53.696Z,65.60
2023-02-09T05:04:21.640Z,65.93
2023-02-09T05:06:49.602Z,68.33
2023-02-09T05:09:17.548Z,75.67
2023-02-09T05:11:45.423Z,61.50
2023-02-09T05:14:13.315Z,72.90
2023-02-09T05:16:41.273Z,72.50
2023-02-09T05:19:10.629Z,73.00
2023-02-09T05:21:38.588Z,64.73
2023-02-09T05:24:07.317Z,75.03
2023-02-09T05:26:35.276Z,62.90
2023-02-09T05:29:03.706Z,67.33
2023-02-09T05:31:31.853Z,72.63
2023-02-09T05:34:01.073Z,64.00
2023-02-09T05:36:30.531Z,64.00
2023-02-09T05:38:58.486Z,66.87
2023-02-09T05:41:43.999Z,66.07
2023-02-09T05:44:11.979Z,64.63
2023-02-09T05:46:39.894Z,64.90
2023-02-09T05:49:07.898Z,61.80
2023-02-09T05:51:37.184Z,60.23
2023-02-09T05:54:05.370Z,57.87
2023-02-09T05:56:33.338Z,62.03
2023-02-09T05:59:02.988Z,73.60
2023-02-09T06:01:32.384Z,75.43
2023-02-09T06:04:00.359Z,81.70
2023-02-09T06:06:28.345Z,61.07
2023-02-09T06:08:57.631Z,74.00
2023-02-09T06:11:25.535Z,68.97
2023-02-09T06:13:53.516Z,68.03
2023-02-09T06:16:21.615Z,62.03
2023-02-09T06:18:49.646Z,64.03
2023-02-09T06:21:17.652Z,62.70
2023-02-09T06:23:45.895Z,66.27
2023-02-09T06:26:17.227Z,63.77
2023-02-09T06:28:45.762Z,73.43
2023-02-09T06:31:14.258Z,63.67
2023-02-09T06:33:42.343Z,69.87
2023-02-09T06:36:11.340Z,88.50
2023-02-09T06:38:39.677Z,87.57
2023-02-09T06:41:07.866Z,81.03
2023-02-09T06:43:37.278Z,65.97
2023-02-09T06:46:09.000Z,65.27
2023-02-09T06:48:37.648Z,61.17
2023-02-09T06:51:09.168Z,73.03
2023-02-09T06:53:37.544Z,71.50
2023-02-09T06:56:06.471Z,70.37
2023-02-09T06:58:34.697Z,70.27
2023-02-09T07:01:04.995Z,69.57
2023-02-09T07:03:33.138Z,66.50
2023-02-09T07:06:05.552Z,66.10
2023-02-09T07:08:33.730Z,66.10
2023-02-09T07:11:05.092Z,67.47
2023-02-09T07:13:33.601Z,70.23
2023-02-09T07:16:05.466Z,73.27
2023-02-09T07:18:33.723Z,76.37
2023-02-09T07:21:04.109Z,66.07
2023-02-09T07:23:32.625Z,65.97
2023-02-09T07:26:03.965Z,68.67
2023-02-09T07:28:32.128Z,61.33
2023-02-09T07:31:06.096Z,64.97
2023-02-09T07:33:34.616Z,69.00
2023-02-09T07:36:04.458Z,75.00
2023-02-09T07:38:32.693Z,75.30
2023-02-09T07:41:00.923Z,72.20
2023-02-09T07:43:28.998Z,65.53
2023-02-09T07:46:01.454Z,67.00
2023-02-09T07:48:31.354Z,71.40
2023-02-09T07:50:59.961Z,63.97
2023-02-09T07:53:28.904Z,79.20
2023-02-09T07:55:57.246Z,58.23
2023-02-09T07:58:25.391Z,59.90
2023-02-09T08:00:53.258Z,64.53
2023-02-09T08:03:24.421Z,63.40
2023-02-09T08:05:59.772Z,79.20
2023-02-09T08:08:27.912Z,62.37
2023-02-09T08:10:57.554Z,54.90
2023-02-09T08:13:27.366Z,64.47
2023-02-09T08:15:58.634Z,60.60
2023-02-09T08:18:29.930Z,61.60
2023-02-09T08:20:59.666Z,62.43
2023-02-09T08:23:31.036Z,69.70
2023-02-09T08:26:01.200Z,62.47
2023-02-09T08:28:42.776Z,53.23
2023-02-09T08:31:11.840Z,59.03
2023-02-09T08:33:39.984Z,62.83
2023-02-09T08:36:11.231Z,61.70
2023-02-09T08:38:39.297Z,56.53
2023-02-09T08:41:09.713Z,66.23
2023-02-09T08:43:37.881Z,69.23
2023-02-09T08:46:07.628Z,66.20
2023-02-09T08:48:37.602Z,71.83
2023-02-09T08:51:06.672Z,64.10
2023-02-09T08:53:36.280Z,67.20
2023-02-09T08:56:04.556Z,56.10
2023-02-09T08:58:33.346Z,68.00
2023-02-09T09:01:01.433Z,57.00
2023-02-09T09:03:31.754Z,59.17
2023-02-09T09:06:00.872Z,63.50
2023-02-09T09:08:29.117Z,59.90
2023-02-09T09:10:58.690Z,61.40
2023-02-09T09:13:27.338Z,61.23
2023-02-09T09:15:56.540Z,63.77
2023-02-09T09:18:25.133Z,64.73
2023-02-09T09:20:53.247Z,50.43
2023-02-09T09:23:21.563Z,59.33
2023-02-09T09:25:49.579Z,57.07
2023-02-09T09:28:19.103Z,67.63
2023-02-09T09:30:47.153Z,54.63
2023-02-09T09:33:15.162Z,61.47
2023-02-09T09:35:43.144Z,65.00
2023-02-09T09:38:11.061Z,61.27
2023-02-09T09:40:41.953Z,47.73
2023-02-09T09:43:20.225Z,62.13
2023-02-09T09:45:50.034Z,57.93
2023-02-09T09:48:24.487Z,58.07
2023-02-09T09:50:55.691Z,51.43
2023-02-09T09:53:31.714Z,54.23
2023-02-09T09:56:02.695Z,62.50
2023-02-09T09:58:33.024Z,65.20
2023-02-09T10:01:02.443Z,56.60
2023-02-09T10:03:30.389Z,47.03
2023-02-09T10:06:10.778Z,51.53
2023-02-09T10:08:44.683Z,48.53
2023-02-09T10:11:14.540Z,50.00
2023-02-09T10:13:45.816Z,45.70
2023-02-09T10:16:19.233Z,51.33
2023-02-09T10:18:50.579Z,41.63
2023-02-09T10:21:18.840Z,46.27
2023-02-09T10:23:50.420Z,43.47
2023-02-09T10:26:24.107Z,45.77
2023-02-09T10:28:55.306Z,49.33
2023-02-09T10:31:34.255Z,46.53
2023-02-09T10:34:05.120Z,46.27
2023-02-09T10:36:34.745Z,43.70
2023-02-09T10:39:17.918Z,56.37
2023-02-09T10:41:49.040Z,50.77
2023-02-09T10:44:21.443Z,53.63
2023-02-09T10:46:53.109Z,42.57
2023-02-09T10:49:29.863Z,46.93
2023-02-09T10:52:09.228Z,45.67
2023-02-09T10:54:41.689Z,42.47
2023-02-09T10:57:22.997Z,46.30
2023-02-09T10:59:56.237Z,45.13
2023-02-09T11:02:36.472Z,43.57
2023-02-09T11:05:05.088Z,41.60
2023-02-09T11:07:38.477Z,42.37
2023-02-09T11:10:14.062Z,41.47
2023-02-09T11:12:43.500Z,43.47
2023-02-09T11:15:14.708Z,38.47
2023-02-09T11:17:50.965Z,49.23
2023-02-09T11:20:28.822Z,40.90
2023-02-09T11:23:07.990Z,38.60
2023-02-09T11:25:42.255Z,38.30
2023-02-09T11:28:41.384Z,39.43
2023-02-09T11:31:40.289Z,42.73
2023-02-09T11:34:32.193Z,41.90
2023-02-09T11:37:08.954Z,37.40
2023-02-09T11:39:45.552Z,38.33
2023-02-09T11:42:36.509Z,29.23
2023-02-09T11:45:09.515Z,30.27
2023-02-09T11:47:46.969Z,30.17
2023-02-09T11:50:24.900Z,27.50
2023-02-09T11:52:56.449Z,32.67
2023-02-09T11:55:30.179Z,25.93
2023-02-09T11:58:10.352Z,29.67
2023-02-09T12:00:55.956Z,27.77
2023-02-09T12:03:27.925Z,37.67
2023-02-09T12:06:00.607Z,30.43
2023-02-09T12:08:45.219Z,32.47
2023-02-09T12:11:31.132Z,30.00
2023-02-09T12:14:27.790Z,31.27
2023-02-09T12:17:03.152Z,33.03
2023-02-09T12:19:35.977Z,35.07
2023-02-09T12:22:42.702Z,39.20
2023-02-09T12:25:34.409Z,37.13
2023-02-09T12:28:14.070Z,36.93
2023-02-09T12:31:08.645Z,31.97
2023-02-09T12:33:38.294Z,29.47
2023-02-09T12:36:28.121Z,37.23
2023-02-09T12:39:23.861Z,35.87
2023-02-09T12:42:27.207Z,36.13
2023-02-09T12:44:57.801Z,35.03
2023-02-09T12:47:58.297Z,30.77
2023-02-09T12:50:35.621Z,39.60
2023-02-09T12:53:56.008Z,34.57
2023-02-09T12:56:35.535Z,33.70
2023-02-09T12:59:17.967Z,32.93
2023-02-09T13:02:15.991Z,32.87
2023-02-09T13:05:00.018Z,34.47
2023-02-09T13:07:43.758Z,38.43
2023-02-09T13:10:24.499Z,34.27
2023-02-09T13:12:58.066Z,39.70
2023-02-09T13:15:34.378Z,36.23
2023-02-09T13:18:09.942Z,34.77
2023-02-09T13:21:02.960Z,36.10
2023-02-09T13:23:35.362Z,40.90
2023-02-09T13:26:16.961Z,35.80
2023-02-09T13:28:44.955Z,36.33
2023-02-09T13:31:34.812Z,34.83
2023-02-09T13:34:15.354Z,34.20
2023-02-09T13:36:51.132Z,38.43
2023-02-09T13:39:25.613Z,34.37
2023-02-09T13:41:55.408Z,32.17
2023-02-09T13:44:25.035Z,33.37
2023-02-09T13:46:57.556Z,36.10
2023-02-09T13:49:26.889Z,31.67
2023-02-09T13:52:10.330Z,37.10
2023-02-09T13:54:38.800Z,33.63
2023-02-09T13:57:11.363Z,33.37
2023-02-09T13:59:43.529Z,37.63
2023-02-09T14:02:22.138Z,36.50
2023-02-09T14:04:56.199Z,35.53
2023-02-09T14:07:29.679Z,31.77
2023-02-09T14:10:02.507Z,32.93
2023-02-09T14:12:52.370Z,44.97
2023-02-09T14:15:39.854Z,35.07
2023-02-09T14:18:24.942Z,48.37
2023-02-09T14:21:05.109Z,71.03
2023-02-09T14:23:35.960Z,53.13
2023-02-09T14:26:06.642Z,47.13
2023-02-09T14:28:37.341Z,43.30
2023-02-09T14:31:07.214Z,51.53
2023-02-09T14:33:38.670Z,32.20
2023-02-09T14:36:07.610Z,30.87
2023-02-09T14:38:38.014Z,40.03
2023-02-09T14:41:20.200Z,41.80
2023-02-09T14:43:59.289Z,43.53
2023-02-09T14:46:27.431Z,40.27
2023-02-09T14:48:59.834Z,41.27
2023-02-09T14:51:28.631Z,40.83
2023-02-09T14:53:56.628Z,45.03
2023-02-09T14:56:30.064Z,42.97
2023-02-09T14:58:58.031Z,32.43
2023-02-09T15:01:26.017Z,31.83
2023-02-09T15:03:54.097Z,34.90
2023-02-09T15:06:24.220Z,29.00
2023-02-09T15:08:52.238Z,36.00
2023-02-09T15:11:42.849Z,30.47
2023-02-09T15:14:12.046Z,32.50
2023-02-09T15:16:40.091Z,40.30
2023-02-09T15:19:12.898Z,29.57
2023-02-09T15:21:42.164Z,30.73
2023-02-09T15:24:10.148Z,28.93
2023-02-09T15:26:38.698Z,34.30
2023-02-09T15:29:12.266Z,34.83
2023-02-09T15:31:40.739Z,29.67
2023-02-09T15:34:11.206Z,38.87
2023-02-09T15:36:39.309Z,38.93
2023-02-09T15:39:17.930Z,45.63
2023-02-09T15:42:03.338Z,43.23
2023-02-09T15:44:48.937Z,43.57
2023-02-09T15:47:34.481Z,45.80
2023-02-09T15:50:02.393Z,36.30
2023-02-09T15:52:33.357Z,37.37
2023-02-09T15:55:03.708Z,35.00
2023-02-09T15:57:31.690Z,38.10
2023-02-09T15:59:59.620Z,39.97
2023-02-09T16:02:27.666Z,30.67
2023-02-09T16:04:55.738Z,34.80
2023-02-09T16:07:25.796Z,31.23
2023-02-09T16:09:54.027Z,31.50
2023-02-09T16:12:23.386Z,35.50
2023-02-09T16:14:53.247Z,37.70
2023-02-09T16:17:21.344Z,47.27
2023-02-09T16:19:49.350Z,55.23
2023-02-09T16:22:17.315Z,58.83
2023-02-09T16:24:46.721Z,67.37
2023-02-09T16:27:18.215Z,61.90
2023-02-09T16:29:47.465Z,53.73
2023-02-09T16:32:17.583Z,59.20
2023-02-09T16:34:46.180Z,56.13
2023-02-09T16:37:15.952Z,61.77
2023-02-09T16:39:44.165Z,56.53
2023-02-09T16:42:13.840Z,52.90
2023-02-09T16:44:42.261Z,60.50
2023-02-09T16:47:17.130Z,51.10
2023-02-09T16:49:52.227Z,60.07
2023-02-09T16:52:25.843Z,55.23
2023-02-09T16:54:56.540Z,56.40
2023-02-09T16:57:25.608Z,57.57
2023-02-09T16:59:54.698Z,63.53
2023-02-09T17:02:50.536Z,49.50
2023-02-09T17:05:22.086Z,48.03
2023-02-09T17:07:55.180Z,45.03
2023-02-09T17:10:26.001Z,38.13
2023-02-09T17:12:54.148Z,38.80
2023-02-09T17:15:30.663Z,43.03
2023-02-09T17:18:04.772Z,41.23
2023-02-09T17:20:38.480Z,47.80
2023-02-09T17:23:06.793Z,43.87
2023-02-09T17:25:34.693Z,49.73
2023-02-09T17:28:02.645Z,49.57
2023-02-09T17:30:33.746Z,42.47
2023-02-09T17:33:05.031Z,37.97
2023-02-09T17:36:03.714Z,55.70
2023-02-09T17:38:25.603Z,58.27
2023-02-09T17:40:55.844Z,59.27
2023-02-09T17:43:24.527Z,56.37
2023-02-09T17:45:52.803Z,52.77
2023-02-09T17:48:23.406Z,48.97
2023-02-09T17:50:58.065Z,51.53
2023-02-09T17:53:28.449Z,52.10
2023-02-09T17:55:57.105Z,43.87
2023-02-09T17:58:25.606Z,54.03
2023-02-09T18:00:55.749Z,55.67
2023-02-09T18:03:26.320Z,69.43
2023-02-09T18:05:58.299Z,56.87
2023-02-09T18:08:27.242Z,52.10
2023-02-09T18:10:58.493Z,57.73
2023-02-09T18:13:27.150Z,42.07
2023-02-09T18:15:55.170Z,53.77
2023-02-09T18:18:24.409Z,43.60
2023-02-09T18:20:53.880Z,52.90
2023-02-09T18:23:23.137Z,43.80
2023-02-09T18:25:51.549Z,44.53
2023-02-09T18:28:19.751Z,43.77
2023-02-09T18:30:47.734Z,40.70
2023-02-09T18:33:16.755Z,40.57
2023-02-09T18:35:45.871Z,54.23
2023-02-09T18:38:16.040Z,62.50
2023-02-09T18:40:44.021Z,55.87
2023-02-09T18:43:15.148Z,57.57
2023-02-09T18:45:43.082Z,49.57
2023-02-09T18:48:11.771Z,47.77
2023-02-09T18:50:40.240Z,46.97
2023-02-09T18:53:08.522Z,51.53
2023-02-09T18:55:37.874Z,55.00
2023-02-09T18:58:09.371Z,52.63
2023-02-09T19:00:37.572Z,49.53
2023-02-09T19:03:05.738Z,44.30
2023-02-09T19:05:34.809Z,45.97
2023-02-09T19:08:02.935Z,40.17
2023-02-09T19:10:33.027Z,45.47
2023-02-09T19:13:03.171Z,45.83
2023-02-09T19:15:31.971Z,47.10
2023-02-09T19:18:00.263Z,46.40
2023-02-09T19:20:29.931Z,64.27
2023-02-09T19:22:58.388Z,50.17
2023-02-09T19:25:29.317Z,59.77
2023-02-09T19:27:57.725Z,54.53
2023-02-09T19:30:28.729Z,54.27
2023-02-09T19:32:58.778Z,55.03
2023-02-09T19:35:29.309Z,46.17
2023-02-09T19:37:58.852Z,45.40
2023-02-09T19:40:36.226Z,47.67
2023-02-09T19:43:08.507Z,46.83
2023-02-09T19:45:38.103Z,48.57
2023-02-09T19:48:07.786Z,45.87
2023-02-09T19:50:37.575Z,55.43
2023-02-09T19:53:06.762Z,43.27
2023-02-09T19:55:35.091Z,50.33
2023-02-09T19:58:03.041Z,56.47
2023-02-09T20:00:32.984Z,55.70
2023-02-09T20:03:02.335Z,48.00
2023-02-09T20:05:30.409Z,37.23
2023-02-09T20:07:58.605Z,43.97
2023-02-09T20:10:26.557Z,49.87
2023-02-09T20:12:54.611Z,43.27
2023-02-09T20:15:22.680Z,45.27
2023-02-09T20:17:50.861Z,42.47
2023-02-09T20:20:20.226Z,41.30
2023-02-09T20:23:14.079Z,32.33
2023-02-09T20:25:45.277Z,35.40
2023-02-09T20:28:13.731Z,41.53
2023-02-09T20:30:42.954Z,50.93
2023-02-09T20:33:11.770Z,42.67
2023-02-09T20:35:42.226Z,48.93
2023-02-09T20:38:10.626Z,51.07
2023-02-09T20:40:38.628Z,36.57
2023-02-09T20:43:23.982Z,35.07
2023-02-09T20:46:09.570Z,38.27
2023-02-09T20:48:37.557Z,32.97
2023-02-09T20:51:07.011Z,44.03
2023-02-09T20:53:34.992Z,42.03
2023-02-09T20:56:02.944Z,38.73
2023-02-09T20:58:30.856Z,41.60
2023-02-09T21:00:58.867Z,37.60
2023-02-09T21:03:26.825Z,37.97
2023-02-09T21:05:54.856Z,45.00
2023-02-09T21:08:24.173Z,44.50
2023-02-09T21:10:56.433Z,41.37
2023-02-09T21:13:24.396Z,41.03
2023-02-09T21:15:52.548Z,36.43
2023-02-09T21:18:21.732Z,41.00
2023-02-09T21:20:49.993Z,35.63
2023-02-09T21:23:18.801Z,36.77
2023-02-09T21:25:48.157Z,31.97
2023-02-09T21:28:16.212Z,37.10
2023-02-09T21:30:45.414Z,41.00
2023-02-09T21:33:13.967Z,41.47
2023-02-09T21:35:42.093Z,40.33
2023-02-09T21:38:10.270Z,43.17
2023-02-09T21:40:38.646Z,40.30
2023-02-09T21:43:08.016Z,38.63
2023-02-09T21:45:38.971Z,38.60
2023-02-09T21:48:07.103Z,40.47
2023-02-09T21:50:35.113Z,36.17
2023-02-09T21:53:03.184Z,42.23
2023-02-09T21:55:31.418Z,36.30
2023-02-09T21:58:01.475Z,39.83
2023-02-09T22:00:31.871Z,39.23
2023-02-09T22:02:59.817Z,40.20
2023-02-09T22:05:27.746Z,42.13
2023-02-09T22:07:55.698Z,35.10
2023-02-09T22:10:23.768Z,36.80
2023-02-09T22:12:51.967Z,43.83
2023-02-09T22:15:19.940Z,41.23
2023-02-09T22:17:50.672Z,47.67
2023-02-09T22:20:18.730Z,40.70
2023-02-09T22:22:49.426Z,44.00
2023-02-09T22:25:17.493Z,40.30
2023-02-09T22:27:45.414Z,37.70
2023-02-09T22:30:13.755Z,43.23
2023-02-09T22:32:41.689Z,34.73
2023-02-09T22:35:11.139Z,37.87
2023-02-09T22:37:39.242Z,39.67
2023-02-09T22:40:07.860Z,35.37
2023-02-09T22:42:36.460Z,32.43
2023-02-09T22:45:04.995Z,40.50
2023-02-09T22:47:33.785Z,38.90
2023-02-09T22:50:01.684Z,42.43
2023-02-09T22:52:30.980Z,39.83
2023-02-09T22:54:59.292Z,41.17
2023-02-09T22:57:27.711Z,42.07
2023-02-09T22:59:55.656Z,37.77
2023-02-09T23:02:24.730Z,37.30
2023-02-09T23:04:52.697Z,41.40
2023-02-09T23:07:20.754Z,41.30
2023-02-09T23:09:49.984Z,40.30
2023-02-09T23:12:17.898Z,36.47
2023-02-09T23:14:45.866Z,39.50
2023-02-09T23:17:13.869Z,38.63
2023-02-09T23:19:43.013Z,39.23
2023-02-09T23:22:10.921Z,34.47
2023-02-09T23:24:38.863Z,38.40
2023-02-09T23:27:08.204Z,36.37
2023-02-09T23:29:36.113Z,34.40
2023-02-09T23:32:04.813Z,37.27
2023-02-09T23:34:33.540Z,39.53
2023-02-09T23:37:13.105Z,42.27
2023-02-09T23:39:46.800Z,36.30
2023-02-09T23:42:16.083Z,36.47
2023-02-09T23:44:44.020Z,37.03
2023-02-09T23:47:11.901Z,42.80
2023-02-09T23:49:39.837Z,36.67
2023-02-09T23:52:07.759Z,37.63
2023-02-09T23:54:35.621Z,39.30
2023-02-09T23:57:03.549Z,38.37
2023-02-09T23:59:33.075Z,37.20
